Time;durP1;ratioP1;P1;durP2;ratioP2;P2;SDS_P1;SDS_P2;PMS_P1;PMS_P2;Temp;Humidity;BMP_temperature;BMP_pressure;BME280_temperature;BME280_humidity;BME280_pressure;Samples;Min_cycle;Max_cycle;Signal;HPM_P1;HPM_P2
2021/12/10 00:01:02;;;;;;;63.70;38.42;;;;;;;;;;5114831;28;20043;-78
2021/12/10 00:03:39;;;;;;;67.03;38.10;;;;;;;;;;5114653;28;20044;-78
2021/12/10 00:06:10;;;;;;;67.40;36.90;;;;;;;;;;5114494;28;20492;-79
2021/12/10 00:08:38;;;;;;;63.38;37.03;;;;;;;;;;5114546;28;20061;-79
2021/12/10 00:11:06;;;;;;;65.47;37.58;;;;;;;;;;5114366;28;20043;-78
2021/12/10 00:13:32;;;;;;;62.88;35.85;;;;;;;;;;5114512;28;20043;-79
2021/12/10 00:15:58;;;;;;;64.90;37.70;;;;;;;;;;5096371;28;20051;-79
2021/12/10 00:18:32;;;;;;;67.63;35.80;;;;;;;;;;5096308;28;20142;-79
2021/12/10 00:20:59;;;;;;;65.38;37.05;;;;;;;;;;5114148;28;20054;-80
2021/12/10 00:23:29;;;;;;;59.15;36.33;;;;;;;;;;5096331;28;20130;-78
2021/12/10 00:25:56;;;;;;;58.17;36.88;;;;;;;;;;5114360;28;20071;-79
2021/12/10 00:28:27;;;;;;;68.30;36.40;;;;;;;;;;5114378;28;20054;-78
2021/12/10 00:31:03;;;;;;;;;;;;;;;;;;5114402;28;20074;-81
2021/12/10 00:33:31;;;;;;;66.20;35.92;;;;;;;;;;5114410;28;19916;-78
2021/12/10 00:35:57;;;;;;;66.85;36.25;;;;;;;;;;5114153;28;20365;-80
2021/12/10 00:38:24;;;;;;;62.95;36.08;;;;;;;;;;5113926;28;20539;-79
2021/12/10 00:40:51;;;;;;;58.88;36.78;;;;;;;;;;5113822;28;20082;-79
2021/12/10 00:43:17;;;;;;;65.72;37.42;;;;;;;;;;5114056;28;20040;-78
2021/12/10 00:45:43;;;;;;;60.65;37.25;;;;;;;;;;5113714;28;20035;-78
2021/12/10 00:48:09;;;;;;;66.60;38.00;;;;;;;;;;5113731;28;20039;-79
2021/12/10 00:50:38;;;;;;;72.10;37.53;;;;;;;;;;5095585;28;20043;-79
2021/12/10 00:53:04;;;;;;;66.75;38.60;;;;;;;;;;5113823;28;20043;-79
2021/12/10 00:55:31;;;;;;;66.80;39.05;;;;;;;;;;5095749;28;20044;-78
2021/12/10 00:57:58;;;;;;;64.03;38.70;;;;;;;;;;5095514;28;20040;-78
2021/12/10 01:00:33;;;;;;;69.35;39.33;;;;;;;;;;5113591;28;20051;-78
2021/12/10 01:02:59;;;;;;;69.78;38.60;;;;;;;;;;5113386;28;20039;-79
2021/12/10 01:05:26;;;;;;;67.10;37.05;;;;;;;;;;5095396;28;20059;-79
2021/12/10 01:07:52;;;;;;;62.05;38.38;;;;;;;;;;5113452;28;20086;-78
2021/12/10 01:10:22;;;;;;;64.35;37.67;;;;;;;;;;5095482;28;20040;-78
2021/12/10 01:12:50;;;;;;;64.20;35.85;;;;;;;;;;5113473;28;20512;-79
2021/12/10 01:28:47;;;;;;;61.95;33.97;;;;;;;;;;5113344;28;20439;-79
2021/12/10 01:31:13;;;;;;;53.90;33.10;;;;;;;;;;5113337;28;20552;-78
2021/12/10 01:33:40;;;;;;;53.33;33.92;;;;;;;;;;5095267;28;20047;-79
2021/12/10 01:36:08;;;;;;;54.47;31.98;;;;;;;;;;5113349;28;20043;-80
2021/12/10 01:38:35;;;;;;;56.33;33.85;;;;;;;;;;5113199;28;20048;-80
2021/12/10 01:41:16;;;;;;;49.55;33.22;;;;;;;;;;5095364;28;20058;-79
2021/12/10 01:43:43;;;;;;;;;;;;;;;;;;5118286;28;20044;-78
2021/12/10 01:46:12;;;;;;;50.70;29.30;;;;;;;;;;5099257;28;20361;-82
2021/12/10 01:48:43;;;;;;;51.15;30.50;;;;;;;;;;5117189;28;20035;-78
2021/12/10 01:51:10;;;;;;;48.45;29.33;;;;;;;;;;5117136;28;20043;-79
2021/12/10 01:53:37;;;;;;;49.63;29.85;;;;;;;;;;5117223;28;20050;-78
2021/12/10 01:56:05;;;;;;;47.72;28.73;;;;;;;;;;5116859;28;20504;-81
2021/12/10 01:58:32;;;;;;;49.00;30.02;;;;;;;;;;5116958;28;20039;-78
2021/12/10 02:01:04;;;;;;;46.85;28.08;;;;;;;;;;5098697;28;20440;-80
2021/12/10 02:03:30;;;;;;;48.20;28.25;;;;;;;;;;5098425;28;20043;-79
2021/12/10 02:05:56;;;;;;;42.55;27.33;;;;;;;;;;5116856;28;20468;-79
2021/12/10 02:08:22;;;;;;;46.75;28.27;;;;;;;;;;5098890;28;20357;-79
2021/12/10 02:10:49;;;;;;;45.70;27.08;;;;;;;;;;5116751;28;20050;-80
2021/12/10 02:13:15;;;;;;;41.33;26.88;;;;;;;;;;5098770;28;20043;-78
2021/12/10 02:15:41;;;;;;;48.00;27.23;;;;;;;;;;5098867;28;20396;-80
2021/12/10 02:18:09;;;;;;;43.85;26.65;;;;;;;;;;5116649;28;20051;-80
2021/12/10 02:20:54;;;;;;;49.40;27.02;;;;;;;;;;5116840;28;20050;-80
2021/12/10 02:23:22;;;;;;;39.30;25.73;;;;;;;;;;5116629;28;20043;-81
2021/12/10 02:25:50;;;;;;;39.60;25.20;;;;;;;;;;5098350;28;20130;-79
2021/12/10 02:28:16;;;;;;;39.30;24.73;;;;;;;;;;5116440;28;20056;-77
2021/12/10 02:30:44;;;;;;;38.45;24.70;;;;;;;;;;5116299;28;20039;-79
2021/12/10 02:33:10;;;;;;;31.65;20.92;;;;;;;;;;5116583;28;20047;-81
2021/12/10 02:35:37;;;;;;;38.67;21.55;;;;;;;;;;5116445;28;20499;-78
2021/12/10 02:38:04;;;;;;;31.40;18.83;;;;;;;;;;5116460;28;20043;-81
2021/12/10 02:40:31;;;;;;;32.03;19.63;;;;;;;;;;5098190;28;20047;-81
2021/12/10 02:42:58;;;;;;;32.88;19.63;;;;;;;;;;5116126;28;20035;-80
2021/12/10 02:45:25;;;;;;;31.88;19.17;;;;;;;;;;5116314;28;20044;-79
2021/12/10 02:47:52;;;;;;;33.20;19.08;;;;;;;;;;5098141;28;20054;-77
2021/12/10 02:50:20;;;;;;;29.95;17.90;;;;;;;;;;5097957;28;20036;-80
2021/12/10 02:52:47;;;;;;;31.45;17.35;;;;;;;;;;5115826;28;20399;-79
2021/12/10 02:55:15;;;;;;;33.22;18.05;;;;;;;;;;5116145;28;20082;-80
2021/12/10 02:57:45;;;;;;;34.40;19.20;;;;;;;;;;5115715;28;20043;-77
2021/12/10 03:00:14;;;;;;;36.65;18.38;;;;;;;;;;5097677;28;20039;-80
2021/12/10 03:02:40;;;;;;;29.70;18.77;;;;;;;;;;5115917;28;20043;-78
2021/12/10 03:05:08;;;;;;;31.92;18.58;;;;;;;;;;5115596;28;20481;-77
2021/12/10 03:07:35;;;;;;;38.70;19.77;;;;;;;;;;5080889;28;20048;-79
2021/12/10 03:10:17;;;;;;;30.27;17.92;;;;;;;;;;5115445;28;20054;-79
2021/12/10 03:12:44;;;;;;;34.30;18.70;;;;;;;;;;5097991;28;20507;-79
2021/12/10 03:15:10;;;;;;;34.45;18.98;;;;;;;;;;5097601;28;20039;-78
2021/12/10 03:17:37;;;;;;;33.03;19.33;;;;;;;;;;5115683;28;20039;-81
2021/12/10 03:20:06;;;;;;;33.60;20.15;;;;;;;;;;5115478;28;20035;-80
2021/12/10 03:22:32;;;;;;;36.17;21.17;;;;;;;;;;5115360;28;20039;-80
2021/12/10 03:24:58;;;;;;;41.55;21.73;;;;;;;;;;5097318;28;20473;-79
2021/12/10 03:27:25;;;;;;;36.30;20.88;;;;;;;;;;5115353;28;20392;-80
2021/12/10 03:29:52;;;;;;;41.30;23.75;;;;;;;;;;5115530;28;20047;-80
2021/12/10 03:32:23;;;;;;;40.10;22.00;;;;;;;;;;5115377;28;20039;-80
2021/12/10 03:34:50;;;;;;;37.20;22.33;;;;;;;;;;5115273;28;20051;-80
2021/12/10 03:37:18;;;;;;;32.00;20.80;;;;;;;;;;5115106;28;20047;-78
2021/12/10 03:39:46;;;;;;;42.03;21.17;;;;;;;;;;5115098;28;20050;-78
2021/12/10 03:42:12;;;;;;;43.10;24.85;;;;;;;;;;5114971;28;20050;-80
2021/12/10 03:44:38;;;;;;;34.10;24.00;;;;;;;;;;5115203;28;20044;-78
2021/12/10 03:47:06;;;;;;;38.13;23.80;;;;;;;;;;5115612;28;20051;-79
2021/12/10 03:49:32;;;;;;;40.80;23.27;;;;;;;;;;5115262;28;20035;-80
2021/12/10 03:51:58;;;;;;;40.72;22.67;;;;;;;;;;5115096;28;20040;-78
2021/12/10 03:54:25;;;;;;;36.72;22.20;;;;;;;;;;5115113;28;20058;-79
2021/12/10 03:56:51;;;;;;;40.13;23.73;;;;;;;;;;5115081;28;20045;-79
2021/12/10 03:59:19;;;;;;;35.90;23.98;;;;;;;;;;5097052;28;20055;-79
2021/12/10 04:01:46;;;;;;;38.15;25.02;;;;;;;;;;5114959;28;20039;-79
2021/12/10 04:04:18;;;;;;;40.25;25.33;;;;;;;;;;5095852;28;20054;-81
2021/12/10 04:06:44;;;;;;;38.88;24.83;;;;;;;;;;5114939;28;20050;-78
2021/12/10 04:09:11;;;;;;;38.95;26.42;;;;;;;;;;5096547;28;20050;-80
2021/12/10 04:11:37;;;;;;;39.35;26.08;;;;;;;;;;5115054;28;20040;-78
2021/12/10 04:14:05;;;;;;;40.13;25.45;;;;;;;;;;5114679;28;20486;-81
2021/12/10 04:16:31;;;;;;;38.72;25.67;;;;;;;;;;5114593;28;20089;-81
2021/12/10 04:18:58;;;;;;;36.60;25.05;;;;;;;;;;5114224;28;20039;-78
2021/12/10 04:21:24;;;;;;;37.30;25.73;;;;;;;;;;5114605;28;20079;-79
2021/12/10 04:23:51;;;;;;;40.17;26.80;;;;;;;;;;5096289;28;20252;-78
2021/12/10 04:26:19;;;;;;;39.92;27.00;;;;;;;;;;5096175;28;20092;-79
2021/12/10 04:28:45;;;;;;;36.72;26.17;;;;;;;;;;5114167;28;20050;-77
2021/12/10 04:31:11;;;;;;;41.17;28.05;;;;;;;;;;5095889;28;20188;-79
2021/12/10 04:33:38;;;;;;;38.63;27.00;;;;;;;;;;5114054;28;20451;-80
2021/12/10 04:36:04;;;;;;;40.78;28.20;;;;;;;;;;5113956;28;20366;-79
2021/12/10 04:38:33;;;;;;;40.00;26.40;;;;;;;;;;5114358;28;20388;-80
2021/12/10 04:41:01;;;;;;;38.33;25.60;;;;;;;;;;5114052;28;20485;-79
2021/12/10 04:43:28;;;;;;;34.97;25.70;;;;;;;;;;5095632;28;20049;-80
2021/12/10 04:45:55;;;;;;;32.88;25.55;;;;;;;;;;5113873;28;20039;-79
2021/12/10 04:48:21;;;;;;;32.40;24.25;;;;;;;;;;5113607;28;20044;-79
2021/12/10 04:50:48;;;;;;;35.22;24.70;;;;;;;;;;5113894;28;20047;-80
2021/12/10 04:53:14;;;;;;;31.10;22.02;;;;;;;;;;5095801;28;20083;-80
2021/12/10 04:55:40;;;;;;;33.92;23.83;;;;;;;;;;5095837;28;20044;-78
2021/12/10 04:58:07;;;;;;;28.35;22.65;;;;;;;;;;5113753;28;20035;-79
2021/12/10 05:00:37;;;;;;;30.60;22.77;;;;;;;;;;5113578;28;20051;-78
2021/12/10 05:03:05;;;;;;;27.10;20.55;;;;;;;;;;5113693;28;20115;-79
2021/12/10 05:05:32;;;;;;;28.38;21.55;;;;;;;;;;5095156;28;20409;-78
2021/12/10 05:07:58;;;;;;;27.92;20.33;;;;;;;;;;5113593;28;20051;-80
2021/12/10 05:10:24;;;;;;;28.65;20.35;;;;;;;;;;5095424;28;20051;-79
2021/12/10 05:12:50;;;;;;;30.27;21.90;;;;;;;;;;5113385;28;20381;-79
2021/12/10 05:15:21;;;;;;;29.48;21.30;;;;;;;;;;5113130;28;20039;-79
2021/12/10 05:17:48;;;;;;;28.25;20.58;;;;;;;;;;5113376;28;20074;-78
2021/12/10 05:20:17;;;;;;;27.48;20.77;;;;;;;;;;5095277;28;20044;-79
2021/12/10 05:22:44;;;;;;;26.42;20.00;;;;;;;;;;5113445;28;20061;-80
2021/12/10 05:25:11;;;;;;;27.50;20.83;;;;;;;;;;5113258;28;20082;-80
2021/12/10 05:27:38;;;;;;;25.08;18.52;;;;;;;;;;5113187;28;20043;-80
2021/12/10 05:30:05;;;;;;;29.05;20.90;;;;;;;;;;5113324;28;20443;-81
2021/12/10 05:32:31;;;;;;;27.75;20.40;;;;;;;;;;5113286;28;20043;-78
2021/12/10 05:34:57;;;;;;;28.52;20.23;;;;;;;;;;5094919;28;20043;-79
2021/12/10 05:37:23;;;;;;;28.30;20.63;;;;;;;;;;5094700;28;20612;-79
2021/12/10 05:39:49;;;;;;;25.63;20.20;;;;;;;;;;5095036;28;20079;-80
2021/12/10 05:42:16;;;;;;;28.17;19.80;;;;;;;;;;5094935;28;20119;-78
2021/12/10 05:44:42;;;;;;;27.52;18.60;;;;;;;;;;5113168;28;20070;-77
2021/12/10 05:47:08;;;;;;;26.25;19.63;;;;;;;;;;5113030;28;20040;-78
2021/12/10 05:49:34;;;;;;;26.88;19.42;;;;;;;;;;5112838;28;20044;-78
2021/12/10 05:52:00;;;;;;;27.13;19.38;;;;;;;;;;5112828;28;20050;-79
2021/12/10 05:54:27;;;;;;;25.77;19.10;;;;;;;;;;5112901;28;20040;-79
2021/12/10 05:56:53;;;;;;;24.50;18.20;;;;;;;;;;5112753;28;20068;-79
2021/12/10 05:59:19;;;;;;;27.33;18.80;;;;;;;;;;5113078;28;20035;-78
2021/12/10 06:01:45;;;;;;;23.88;17.23;;;;;;;;;;5112804;28;20105;-81
2021/12/10 06:04:11;;;;;;;23.80;17.88;;;;;;;;;;5112701;28;20400;-80
2021/12/10 06:06:38;;;;;;;22.38;17.20;;;;;;;;;;5094335;28;20043;-79
2021/12/10 06:09:06;;;;;;;24.83;16.88;;;;;;;;;;5112836;28;20043;-80
2021/12/10 06:11:32;;;;;;;24.15;16.92;;;;;;;;;;5112749;28;20039;-78
2021/12/10 06:13:58;;;;;;;23.98;16.40;;;;;;;;;;5112816;28;20504;-79
2021/12/10 06:16:25;;;;;;;25.30;16.45;;;;;;;;;;5112968;28;20157;-79
2021/12/10 06:18:51;;;;;;;23.80;15.90;;;;;;;;;;5112722;28;20055;-79
2021/12/10 06:21:18;;;;;;;21.80;15.10;;;;;;;;;;5112712;28;20166;-79
2021/12/10 06:23:44;;;;;;;21.48;14.90;;;;;;;;;;5112691;28;20043;-77
2021/12/10 06:26:11;;;;;;;24.20;15.63;;;;;;;;;;5094814;28;20063;-78
2021/12/10 06:28:37;;;;;;;21.27;15.35;;;;;;;;;;5115761;28;20043;-78
2021/12/10 06:31:04;;;;;;;23.65;15.82;;;;;;;;;;5116268;28;20374;-78
2021/12/10 06:33:31;;;;;;;23.27;14.50;;;;;;;;;;5116341;28;20096;-78
2021/12/10 06:35:58;;;;;;;22.58;14.45;;;;;;;;;;5098290;28;20047;-79
2021/12/10 06:38:25;;;;;;;20.80;14.18;;;;;;;;;;5097933;28;20380;-78
2021/12/10 06:40:52;;;;;;;21.38;14.10;;;;;;;;;;5116476;28;20119;-80
2021/12/10 06:43:19;;;;;;;20.02;13.85;;;;;;;;;;5098231;28;20058;-79
2021/12/10 06:45:46;;;;;;;20.80;14.25;;;;;;;;;;5116093;28;20361;-78
2021/12/10 06:48:13;;;;;;;23.25;13.77;;;;;;;;;;5116004;28;20491;-79
2021/12/10 06:50:41;;;;;;;19.08;13.60;;;;;;;;;;5097571;28;20045;-79
2021/12/10 06:53:07;;;;;;;21.58;14.30;;;;;;;;;;5115966;28;20084;-79
2021/12/10 06:55:33;;;;;;;21.30;13.85;;;;;;;;;;5115938;28;20544;-79
2021/12/10 06:58:00;;;;;;;20.42;13.93;;;;;;;;;;5097983;28;20047;-79
2021/12/10 07:00:29;;;;;;;20.75;14.20;;;;;;;;;;5115682;28;20123;-79
2021/12/10 07:02:55;;;;;;;18.88;13.57;;;;;;;;;;5115748;28;20044;-80
2021/12/10 07:05:21;;;;;;;19.13;13.55;;;;;;;;;;5115803;28;20047;-80
2021/12/10 07:07:48;;;;;;;20.83;14.43;;;;;;;;;;5115479;28;20519;-81
2021/12/10 07:10:15;;;;;;;20.80;14.13;;;;;;;;;;5115456;28;20540;-79
2021/12/10 07:12:43;;;;;;;22.02;14.70;;;;;;;;;;5115775;28;20035;-80
2021/12/10 07:15:10;;;;;;;21.45;14.55;;;;;;;;;;5115701;28;20118;-79
2021/12/10 07:17:39;;;;;;;21.58;14.95;;;;;;;;;;5115562;28;20512;-78
2021/12/10 07:20:06;;;;;;;24.98;14.15;;;;;;;;;;5115204;28;20416;-77
2021/12/10 07:22:32;;;;;;;21.67;14.63;;;;;;;;;;5115428;28;20046;-79
2021/12/10 07:24:58;;;;;;;21.98;14.00;;;;;;;;;;5115391;28;20046;-79
2021/12/10 07:27:24;;;;;;;20.88;13.88;;;;;;;;;;5114607;28;20483;-80
2021/12/10 07:29:50;;;;;;;20.42;14.52;;;;;;;;;;5096420;28;20036;-77
2021/12/10 07:32:17;;;;;;;18.20;13.20;;;;;;;;;;5114104;28;20050;-71
2021/12/10 07:34:43;;;;;;;19.58;13.90;;;;;;;;;;5096962;28;20380;-79
2021/12/10 07:37:10;;;;;;;23.42;14.02;;;;;;;;;;5115073;28;20084;-80
2021/12/10 07:39:37;;;;;;;22.15;14.10;;;;;;;;;;5113525;28;20044;-79
2021/12/10 07:42:04;;;;;;;21.33;13.65;;;;;;;;;;5096353;28;20083;-78
2021/12/10 07:44:30;;;;;;;22.13;12.52;;;;;;;;;;5096647;28;20250;-78
2021/12/10 07:46:57;;;;;;;22.48;14.07;;;;;;;;;;5114888;28;20496;-79
2021/12/10 07:49:29;;;;;;;22.73;14.35;;;;;;;;;;5114836;28;20046;-78
2021/12/10 07:51:55;;;;;;;21.27;14.07;;;;;;;;;;5114620;28;20484;-80
2021/12/10 07:54:22;;;;;;;24.13;13.85;;;;;;;;;;5096912;28;20058;-79
2021/12/10 07:56:48;;;;;;;17.88;11.73;;;;;;;;;;5114344;28;20075;-79
2021/12/10 07:59:14;;;;;;;19.85;13.00;;;;;;;;;;5096651;28;20127;-80
2021/12/10 08:01:40;;;;;;;20.65;12.48;;;;;;;;;;5115096;28;20417;-77
2021/12/10 08:04:08;;;;;;;17.38;10.75;;;;;;;;;;5114618;28;20104;-79
2021/12/10 08:06:36;;;;;;;19.65;12.45;;;;;;;;;;5092766;28;20040;-78
2021/12/10 08:09:03;;;;;;;20.73;12.70;;;;;;;;;;5093133;28;20093;-78
2021/12/10 08:11:30;;;;;;;15.98;11.35;;;;;;;;;;5094014;28;20091;-79
2021/12/10 08:13:57;;;;;;;18.20;12.15;;;;;;;;;;5093972;28;20035;-77
2021/12/10 08:16:25;;;;;;;19.55;11.73;;;;;;;;;;5092689;28;20485;-78
2021/12/10 08:18:52;;;;;;;18.88;12.70;;;;;;;;;;5094023;28;20040;-78
2021/12/10 08:21:18;;;;;;;20.77;12.30;;;;;;;;;;5093902;28;20192;-80
2021/12/10 08:23:44;;;;;;;17.92;12.40;;;;;;;;;;5092684;28;20123;-79
2021/12/10 08:26:12;;;;;;;17.98;11.75;;;;;;;;;;5093722;28;20200;-79
2021/12/10 08:28:39;;;;;;;19.50;12.07;;;;;;;;;;5093632;28;20070;-79
2021/12/10 08:31:05;;;;;;;19.17;11.00;;;;;;;;;;5092432;28;20047;-79
2021/12/10 08:33:32;;;;;;;21.02;12.63;;;;;;;;;;5092525;28;20473;-79
2021/12/10 08:36:03;;;;;;;18.15;11.95;;;;;;;;;;5093666;28;20085;-81
2021/12/10 08:38:29;;;;;;;;;;;;;;;;;;5094085;28;20039;-79
2021/12/10 08:40:57;;;;;;;17.92;10.57;;;;;;;;;;5093497;28;19959;-79
2021/12/10 08:43:24;;;;;;;17.63;10.98;;;;;;;;;;5093434;28;20043;-79
2021/12/10 08:45:54;;;;;;;17.30;11.93;;;;;;;;;;5093635;28;20075;-78
2021/12/10 08:48:20;;;;;;;20.73;11.98;;;;;;;;;;5093566;28;20044;-78
2021/12/10 08:50:47;;;;;;;17.67;12.25;;;;;;;;;;5093046;28;20130;-79
2021/12/10 08:53:14;;;;;;;16.48;11.88;;;;;;;;;;5092232;28;20047;-79
2021/12/10 08:55:42;;;;;;;20.70;11.60;;;;;;;;;;5093382;28;20043;-78
2021/12/10 08:58:08;;;;;;;20.65;11.65;;;;;;;;;;5093164;28;20048;-79
2021/12/10 09:00:35;;;;;;;18.65;10.57;;;;;;;;;;5093351;28;20413;-80
2021/12/10 09:03:01;;;;;;;16.00;10.88;;;;;;;;;;5093441;28;20043;-80
2021/12/10 09:05:29;;;;;;;16.65;10.02;;;;;;;;;;5100474;28;20126;-79
2021/12/10 09:07:55;;;;;;;18.08;11.70;;;;;;;;;;5095157;28;20047;-79
2021/12/10 09:10:23;;;;;;;17.95;10.80;;;;;;;;;;5113458;28;20050;-79
2021/12/10 09:12:50;;;;;;;15.43;10.25;;;;;;;;;;5095385;28;20475;-79
2021/12/10 09:15:19;;;;;;;16.48;10.02;;;;;;;;;;5113520;28;20059;-79
2021/12/10 09:17:46;;;;;;;18.33;10.65;;;;;;;;;;5095513;28;20043;-77
2021/12/10 09:20:16;;;;;;;18.30;10.38;;;;;;;;;;5113376;28;20108;-77
2021/12/10 09:22:43;;;;;;;16.95;9.82;;;;;;;;;;5113102;28;20043;-78
2021/12/10 09:25:09;;;;;;;14.40;9.88;;;;;;;;;;5113017;28;20500;-80
2021/12/10 09:27:36;;;;;;;17.05;9.80;;;;;;;;;;5113304;28;20076;-80
2021/12/10 09:30:05;;;;;;;14.50;9.85;;;;;;;;;;5095233;28;20541;-80
2021/12/10 09:32:31;;;;;;;13.95;9.68;;;;;;;;;;5113123;28;20047;-79
2021/12/10 09:35:02;;;;;;;14.30;10.00;;;;;;;;;;5113067;28;20172;-78
2021/12/10 09:37:28;;;;;;;15.07;10.13;;;;;;;;;;5112809;28;20046;-80
2021/12/10 09:39:55;;;;;;;15.52;9.85;;;;;;;;;;5112833;28;20043;-80
2021/12/10 09:42:22;;;;;;;16.98;9.40;;;;;;;;;;5112837;28;20476;-79
2021/12/10 09:44:50;;;;;;;14.27;9.40;;;;;;;;;;5113076;28;20090;-78
2021/12/10 09:47:17;;;;;;;16.50;9.63;;;;;;;;;;5112949;28;20048;-79
2021/12/10 09:49:48;;;;;;;15.07;9.65;;;;;;;;;;5094691;28;20040;-79
2021/12/10 09:52:16;;;;;;;12.55;8.13;;;;;;;;;;5112751;28;20058;-78
2021/12/10 09:54:43;;;;;;;14.30;8.23;;;;;;;;;;5094742;28;20043;-80
2021/12/10 09:57:15;;;;;;;14.40;8.43;;;;;;;;;;5112897;28;20040;-80
2021/12/10 09:59:43;;;;;;;14.90;8.25;;;;;;;;;;5112859;28;20047;-80
2021/12/10 10:02:09;;;;;;;17.02;8.88;;;;;;;;;;5116968;27;20523;-79
2021/12/10 10:04:37;;;;;;;15.15;9.27;;;;;;;;;;5157842;27;20050;-79
2021/12/10 10:07:11;;;;;;;14.57;8.20;;;;;;;;;;5122487;27;20067;-78
2021/12/10 10:09:37;;;;;;;14.13;8.35;;;;;;;;;;5116853;28;20042;-80
2021/12/10 10:12:09;;;;;;;11.63;8.43;;;;;;;;;;5126699;27;20035;-79
2021/12/10 10:14:37;;;;;;;14.50;8.27;;;;;;;;;;5137391;27;20068;-77
2021/12/10 10:17:04;;;;;;;13.48;8.63;;;;;;;;;;5137301;27;20054;-78
2021/12/10 10:19:30;;;;;;;12.70;7.63;;;;;;;;;;5137101;27;20035;-77
2021/12/10 10:21:57;;;;;;;15.25;8.15;;;;;;;;;;5135327;27;20035;-80
2021/12/10 10:24:25;;;;;;;11.65;7.68;;;;;;;;;;5137297;27;20046;-79
2021/12/10 10:26:56;;;;;;;14.43;7.82;;;;;;;;;;5118808;27;20086;-80
2021/12/10 10:29:24;;;;;;;10.80;7.25;;;;;;;;;;5118984;27;20047;-80
2021/12/10 10:31:54;;;;;;;14.07;7.97;;;;;;;;;;5118235;27;20472;-78
2021/12/10 10:34:21;;;;;;;15.32;8.25;;;;;;;;;;5119063;27;20354;-78
2021/12/10 10:36:48;;;;;;;13.65;7.93;;;;;;;;;;5137147;27;20070;-77
2021/12/10 10:39:16;;;;;;;10.52;7.20;;;;;;;;;;5137430;27;20125;-77
2021/12/10 10:41:47;;;;;;;11.13;6.53;;;;;;;;;;5134564;27;20046;-78
2021/12/10 10:44:15;;;;;;;10.65;6.57;;;;;;;;;;5136574;27;20388;-79
2021/12/10 10:46:41;;;;;;;12.07;6.38;;;;;;;;;;5136937;27;20043;-79
2021/12/10 10:49:07;;;;;;;13.75;7.07;;;;;;;;;;5136542;27;20511;-78
2021/12/10 10:51:37;;;;;;;10.63;6.82;;;;;;;;;;5132506;27;20060;-79
2021/12/10 10:54:05;;;;;;;10.43;6.38;;;;;;;;;;5098139;28;20042;-78
2021/12/10 10:56:33;;;;;;;9.95;5.97;;;;;;;;;;5116128;28;20383;-78
2021/12/10 10:59:02;;;;;;;11.23;6.75;;;;;;;;;;5097754;28;20055;-80
2021/12/10 11:01:33;;;;;;;13.48;6.70;;;;;;;;;;5100475;27;20055;-80
2021/12/10 11:04:03;;;;;;;13.57;6.97;;;;;;;;;;5135091;27;20050;-79
2021/12/10 11:06:31;;;;;;;10.32;5.97;;;;;;;;;;5136143;27;20058;-78
2021/12/10 11:09:06;;;;;;;12.13;6.03;;;;;;;;;;5100901;27;20096;-79
2021/12/10 11:11:35;;;;;;;11.88;6.53;;;;;;;;;;5117638;27;20479;-79
2021/12/10 11:14:04;;;;;;;11.07;6.20;;;;;;;;;;5136207;27;20043;-79
2021/12/10 11:16:31;;;;;;;13.60;5.72;;;;;;;;;;5136054;27;20472;-79
2021/12/10 11:19:00;;;;;;;11.90;6.20;;;;;;;;;;5136126;27;20046;-78
2021/12/10 11:21:38;;;;;;;12.55;6.13;;;;;;;;;;5101030;27;20074;-77
2021/12/10 11:24:30;;;;;;;12.43;5.85;;;;;;;;;;5117903;27;20154;-79
2021/12/10 11:27:03;;;;;;;9.18;5.15;;;;;;;;;;5113092;27;20553;-77
2021/12/10 11:29:48;;;;;;;12.50;5.80;;;;;;;;;;5135767;27;20047;-79
2021/12/10 11:32:16;;;;;;;11.93;5.75;;;;;;;;;;5135816;27;20047;-78
2021/12/10 11:34:49;;;;;;;11.27;5.35;;;;;;;;;;5117819;27;20042;-78
2021/12/10 11:37:16;;;;;;;11.90;5.28;;;;;;;;;;5135953;27;20043;-78
2021/12/10 11:39:47;;;;;;;9.35;5.13;;;;;;;;;;5117752;27;20090;-79
2021/12/10 11:42:14;;;;;;;;;;;;;;;;;;5136113;27;20397;-80
2021/12/10 11:45:05;;;;;;;9.30;4.88;;;;;;;;;;5117063;27;19922;-78
2021/12/10 11:47:42;;;;;;;8.82;5.25;;;;;;;;;;5135209;27;20043;-79
2021/12/10 11:50:16;;;;;;;9.73;4.78;;;;;;;;;;5135604;27;20043;-80
2021/12/10 11:52:42;;;;;;;11.20;5.60;;;;;;;;;;5135605;27;20051;-80
2021/12/10 11:55:10;;;;;;;12.80;5.40;;;;;;;;;;5116883;27;20039;-79
2021/12/10 11:57:41;;;;;;;8.85;4.85;;;;;;;;;;5135193;27;20039;-79
2021/12/10 12:00:07;;;;;;;12.95;5.57;;;;;;;;;;5135375;27;20456;-78
2021/12/10 12:02:45;;;;;;;11.65;4.85;;;;;;;;;;5135133;27;20042;-78
2021/12/10 12:05:13;;;;;;;11.70;5.07;;;;;;;;;;5135112;27;20515;-78
2021/12/10 12:07:43;;;;;;;9.85;4.53;;;;;;;;;;5135288;27;20078;-78
2021/12/10 12:10:23;;;;;;;9.88;4.80;;;;;;;;;;5116701;27;20169;-78
2021/12/10 12:12:50;;;;;;;11.52;4.68;;;;;;;;;;5116661;27;20468;-79
2021/12/10 12:15:16;;;;;;;12.57;5.03;;;;;;;;;;5135082;27;20391;-80
2021/12/10 12:17:48;;;;;;;11.52;4.50;;;;;;;;;;5134977;27;20043;-80
2021/12/10 12:20:53;;;;;;;10.45;5.22;;;;;;;;;;5134684;27;20074;-78
2021/12/10 12:26:15;;;;;;;9.95;5.05;;;;;;;;;;5030987;28;20089;-78
2021/12/10 12:28:43;;;;;;;10.52;5.50;;;;;;;;;;5101376;27;20072;-79
2021/12/10 12:31:17;;;;;;;11.75;5.25;;;;;;;;;;5135073;27;20384;-80
2021/12/10 12:33:50;;;;;;;9.90;5.10;;;;;;;;;;5134779;27;20378;-78
2021/12/10 12:36:17;;;;;;;10.25;5.72;;;;;;;;;;5134632;27;20107;-78
2021/12/10 12:38:44;;;;;;;10.15;4.90;;;;;;;;;;5134824;27;20035;-79
2021/12/10 12:41:13;;;;;;;9.20;4.80;;;;;;;;;;5116592;27;20046;-81
2021/12/10 12:43:40;;;;;;;10.68;4.90;;;;;;;;;;5134552;27;20126;-78
2021/12/10 12:46:08;;;;;;;9.77;5.13;;;;;;;;;;5134209;27;20046;-79
2021/12/10 12:48:37;;;;;;;9.88;5.05;;;;;;;;;;5115861;27;20043;-79
2021/12/10 12:51:13;;;;;;;9.80;4.80;;;;;;;;;;5116072;27;20047;-78
2021/12/10 12:53:39;;;;;;;8.30;4.82;;;;;;;;;;5115976;27;20476;-83
2021/12/10 12:56:11;;;;;;;15.07;5.72;;;;;;;;;;5115992;27;20047;-79
2021/12/10 12:58:41;;;;;;;12.73;5.15;;;;;;;;;;5134257;27;20082;-78
2021/12/10 13:01:09;;;;;;;10.52;5.25;;;;;;;;;;5133939;27;20055;-78
2021/12/10 13:03:47;;;;;;;10.68;5.30;;;;;;;;;;5134058;27;20058;-80
2021/12/10 13:06:19;;;;;;;10.35;5.50;;;;;;;;;;5133683;27;20058;-79
2021/12/10 13:08:47;;;;;;;12.85;5.20;;;;;;;;;;5134011;27;20379;-80
2021/12/10 13:11:22;;;;;;;10.50;5.38;;;;;;;;;;5134110;27;20045;-80
2021/12/10 13:13:51;;;;;;;9.55;5.82;;;;;;;;;;5134035;27;20053;-78
2021/12/10 13:16:40;;;;;;;13.43;6.38;;;;;;;;;;5115504;27;20049;-79
2021/12/10 13:19:08;;;;;;;10.05;6.13;;;;;;;;;;5133577;27;20049;-79
2021/12/10 13:21:34;;;;;;;10.70;6.00;;;;;;;;;;5133819;27;20042;-79
2021/12/10 13:24:00;;;;;;;10.82;5.80;;;;;;;;;;5115377;27;20495;-80
2021/12/10 13:26:27;;;;;;;12.70;5.45;;;;;;;;;;5133907;27;20070;-78
2021/12/10 13:28:53;;;;;;;13.15;5.93;;;;;;;;;;5133555;27;20045;-77
2021/12/10 13:31:20;;;;;;;12.35;5.90;;;;;;;;;;5133718;27;20107;-79
2021/12/10 13:33:46;;;;;;;9.63;5.50;;;;;;;;;;5115162;27;20039;-80
2021/12/10 13:36:15;;;;;;;12.23;5.68;;;;;;;;;;5115108;27;20840;-78
2021/12/10 13:38:46;;;;;;;10.93;5.85;;;;;;;;;;5132999;27;20043;-79
2021/12/10 13:41:13;;;;;;;12.18;6.10;;;;;;;;;;5133587;28;20047;-78
2021/12/10 13:43:41;;;;;;;10.80;6.07;;;;;;;;;;5133562;28;20714;-78
2021/12/10 13:46:11;;;;;;;9.82;5.88;;;;;;;;;;5133634;28;20078;-77
2021/12/10 13:48:43;;;;;;;10.40;5.93;;;;;;;;;;5115118;28;20046;-79
2021/12/10 13:51:11;;;;;;;11.40;6.18;;;;;;;;;;5133483;28;20050;-80
2021/12/10 13:53:37;;;;;;;11.60;5.95;;;;;;;;;;5133539;28;20043;-80
2021/12/10 13:56:05;;;;;;;12.63;6.18;;;;;;;;;;5133218;28;20039;-78
2021/12/10 13:58:37;;;;;;;12.23;5.90;;;;;;;;;;5133438;28;20035;-80
2021/12/10 14:01:06;;;;;;;12.55;5.90;;;;;;;;;;5133380;28;20082;-80
2021/12/10 14:03:47;;;;;;;11.95;6.28;;;;;;;;;;5133229;28;20051;-79
2021/12/10 14:06:21;;;;;;;13.35;6.18;;;;;;;;;;5133073;27;20516;-80
2021/12/10 14:09:06;;;;;;;9.10;5.93;;;;;;;;;;5114728;28;20404;-80
2021/12/10 14:11:51;;;;;;;12.50;6.15;;;;;;;;;;5115204;28;20085;-78
2021/12/10 14:14:17;;;;;;;10.80;6.15;;;;;;;;;;5114937;28;20047;-78
2021/12/10 14:16:51;;;;;;;12.25;6.45;;;;;;;;;;5114751;28;20050;-79
2021/12/10 14:19:35;;;;;;;10.93;6.15;;;;;;;;;;5114867;28;20481;-79
2021/12/10 14:22:02;;;;;;;12.48;6.55;;;;;;;;;;5133066;28;20047;-77
2021/12/10 14:24:54;;;;;;;12.15;6.55;;;;;;;;;;5115033;28;20472;-79
2021/12/10 14:27:25;;;;;;;10.88;6.10;;;;;;;;;;5128811;28;20518;-78
2021/12/10 14:30:10;;;;;;;14.40;6.47;;;;;;;;;;5133376;28;20404;-78
2021/12/10 14:32:36;;;;;;;30.85;14.00;;;;;;;;;;5133022;28;20050;-78
2021/12/10 14:35:05;;;;;;;32.47;15.18;;;;;;;;;;5133050;28;20058;-79
2021/12/10 14:37:47;;;;;;;19.75;10.38;;;;;;;;;;5114572;28;20082;-79
2021/12/10 14:40:14;;;;;;;20.00;9.90;;;;;;;;;;5132889;28;20051;-78
2021/12/10 14:42:40;;;;;;;25.88;10.05;;;;;;;;;;5132742;28;20082;-77
2021/12/10 14:45:11;;;;;;;28.02;14.52;;;;;;;;;;5132904;28;20071;-80
2021/12/10 14:47:38;;;;;;;43.65;19.67;;;;;;;;;;5132961;27;20043;-78